Time;durP1;ratioP1;P1;durP2;ratioP2;P2;SDS_P1;SDS_P2;PMS_P1;PMS_P2;Temp;Humidity;BMP_temperature;BMP_pressure;BME280_temperature;BME280_humidity;BME280_pressure;Samples;Min_cycle;Max_cycle;Signal;HPM_P1;HPM_P2
2022/12/11 00:00:19;;;;;;;61.08;23.10;;;;;;;0.91;100.00;101080.84;5048814;23;20025;-84
2022/12/11 00:02:45;;;;;;;64.03;20.73;;;;;;;0.73;100.00;101088.09;5019144;28;21669;-86
2022/12/11 00:05:10;;;;;;;64.43;20.63;;;;;;;0.84;100.00;101092.25;5000748;28;20156;-85
2022/12/11 00:07:36;;;;;;;63.15;20.98;;;;;;;1.02;100.00;101090.53;5006073;28;20025;-85
2022/12/11 00:10:01;;;;;;;60.17;22.23;;;;;;;1.02;100.00;101087.78;5008255;28;20075;-86
2022/12/11 00:12:29;;;;;;;68.50;22.52;;;;;;;1.09;100.00;101087.34;5005484;28;20030;-85
2022/12/11 00:14:54;;;;;;;67.78;21.75;;;;;;;0.79;100.00;101089.63;5007655;28;20075;-85
2022/12/11 00:17:20;;;;;;;71.72;24.35;;;;;;;0.64;100.00;101087.19;5004840;28;20029;-85
2022/12/11 00:19:45;;;;;;;68.80;22.45;;;;;;;0.85;100.00;101093.09;5021585;28;20113;-85
2022/12/11 00:22:10;;;;;;;65.38;20.65;;;;;;;0.94;100.00;101081.03;5007257;28;20116;-84
2022/12/11 00:24:36;;;;;;;60.45;22.45;;;;;;;0.95;100.00;101088.19;5003837;28;20030;-84
2022/12/11 00:27:01;;;;;;;64.20;21.85;;;;;;;1.02;100.00;101088.59;5003945;28;20433;-85
2022/12/11 00:29:26;;;;;;;72.63;25.92;;;;;;;0.85;100.00;101091.16;5001834;28;20029;-85
2022/12/11 00:31:52;;;;;;;63.25;22.15;;;;;;;1.06;100.00;101086.03;5004212;28;20056;-85
2022/12/11 00:34:17;;;;;;;69.03;24.00;;;;;;;1.12;100.00;101072.97;5003311;28;20033;-85
2022/12/11 00:36:42;;;;;;;59.08;20.40;;;;;;;0.99;100.00;101083.69;5016967;28;20536;-84
2022/12/11 00:39:08;;;;;;;73.97;22.35;;;;;;;1.08;100.00;101080.22;5029151;28;20025;-84
2022/12/11 00:41:33;;;;;;;79.00;25.48;;;;;;;0.79;100.00;101084.94;5005549;28;20058;-85
2022/12/11 00:43:59;;;;;;;79.55;24.58;;;;;;;0.72;100.00;101083.72;5005263;28;20125;-85
2022/12/11 00:46:24;;;;;;;79.15;24.17;;;;;;;0.91;100.00;101078.91;5003840;28;20028;-84
2022/12/11 00:48:49;;;;;;;59.70;21.05;;;;;;;1.07;100.00;101084.09;5004520;28;20492;-84
2022/12/11 00:51:16;;;;;;;66.00;22.15;;;;;;;1.20;100.00;101077.72;5019760;28;20048;-84
2022/12/11 00:53:42;;;;;;;67.95;21.85;;;;;;;1.14;100.00;101078.97;5008847;28;20117;-85
2022/12/11 00:56:10;;;;;;;70.00;21.45;;;;;;;1.05;100.00;101086.34;5006338;28;20473;-84
2022/12/11 00:58:35;;;;;;;63.67;22.35;;;;;;;1.09;100.00;101082.66;5006215;28;20026;-84
2022/12/11 01:01:06;;;;;;;63.75;22.60;;;;;;;1.21;100.00;101076.63;5008265;28;20053;-85
2022/12/11 01:03:31;;;;;;;69.13;21.88;;;;;;;1.16;100.00;101072.03;5010055;28;20788;-85
2022/12/11 01:05:57;;;;;;;64.88;20.17;;;;;;;1.12;100.00;101081.25;5006897;28;20029;-84
2022/12/11 01:08:22;;;;;;;59.92;19.20;;;;;;;1.11;100.00;101079.59;5008999;28;20512;-84
2022/12/11 01:10:47;;;;;;;74.18;23.23;;;;;;;1.00;100.00;101079.81;5008839;28;20413;-85
2022/12/11 01:13:14;;;;;;;68.07;23.33;;;;;;;0.73;100.00;101055.03;5010916;28;20447;-85
2022/12/11 01:15:42;;;;;;;67.38;21.23;;;;;;;1.10;100.00;101083.50;5007589;28;20034;-84
2022/12/11 01:18:09;;;;;;;63.30;21.05;;;;;;;1.08;100.00;101080.22;5022601;28;20497;-85
2022/12/11 01:20:38;;;;;;;64.75;21.60;;;;;;;0.90;100.00;101082.78;5008960;28;20477;-84
2022/12/11 01:23:03;;;;;;;64.40;21.08;;;;;;;1.11;100.00;101076.84;5008688;28;20064;-84
2022/12/11 01:25:29;;;;;;;67.55;20.42;;;;;;;1.08;100.00;101074.72;5005475;28;20108;-85
2022/12/11 01:27:54;;;;;;;58.97;20.00;;;;;;;1.25;100.00;101080.38;5007707;28;20101;-85
2022/12/11 01:30:22;;;;;;;65.97;22.10;;;;;;;1.05;100.00;101075.31;5006807;28;20461;-85
2022/12/11 01:32:48;;;;;;;73.72;23.70;;;;;;;1.02;100.00;101076.75;5009041;28;20100;-84
2022/12/11 01:35:14;;;;;;;70.90;24.52;;;;;;;0.83;100.00;101085.13;5005364;28;20117;-85
2022/12/11 01:37:40;;;;;;;60.55;22.17;;;;;;;0.86;100.00;101072.69;5006746;28;20052;-86
2022/12/11 01:40:07;;;;;;;65.60;23.60;;;;;;;1.00;100.00;101074.28;5006117;28;20167;-84
2022/12/11 01:42:33;;;;;;;74.22;23.15;;;;;;;0.89;100.00;101056.34;5007462;28;20495;-84
2022/12/11 01:45:20;;;;;;;60.28;20.42;;;;;;;1.08;100.00;101069.19;5008309;28;20132;-84
2022/12/11 01:47:47;;;;;;;66.03;22.00;;;;;;;0.94;100.00;101059.00;5008683;28;20025;-86
2022/12/11 01:50:13;;;;;;;70.13;21.90;;;;;;;0.92;100.00;101083.28;5005505;28;20125;-86
2022/12/11 01:52:39;;;;;;;65.95;24.10;;;;;;;1.02;100.00;101072.03;5008855;28;20042;-86
2022/12/11 01:55:05;;;;;;;71.47;23.70;;;;;;;1.02;100.00;101066.53;5005246;28;20030;-86
2022/12/11 01:57:31;;;;;;;69.45;23.85;;;;;;;1.11;100.00;101072.13;5007317;28;20083;-86
2022/12/11 01:59:56;;;;;;;70.88;22.20;;;;;;;1.09;100.00;101079.88;5007699;28;20489;-85
2022/12/11 02:02:28;;;;;;;63.83;22.35;;;;;;;1.23;100.00;101077.13;5020434;28;20058;-85
2022/12/11 02:04:53;;;;;;;63.83;22.60;;;;;;;1.07;100.00;101065.59;5001257;28;20389;-85
2022/12/11 02:07:19;;;;;;;65.20;23.98;;;;;;;1.10;100.00;101055.91;5003252;28;20034;-85
2022/12/11 02:09:46;;;;;;;58.70;20.05;;;;;;;1.10;100.00;101044.91;5008960;28;20052;-85
2022/12/11 02:12:25;;;;;;;59.92;20.70;;;;;;;1.28;100.00;101068.72;5008084;28;20037;-85
2022/12/11 02:14:50;;;;;;;60.42;21.95;;;;;;;1.34;100.00;101073.00;5026664;28;20030;-85
2022/12/11 02:17:21;;;;;;;71.72;23.00;;;;;;;1.33;100.00;101065.88;5022229;28;20478;-85
2022/12/11 02:19:52;;;;;;;67.00;20.58;;;;;;;1.38;100.00;101073.19;5024148;28;20149;-84
2022/12/11 02:22:41;;;;;;;60.95;21.13;;;;;;;1.37;100.00;101066.88;5023645;28;20021;-85
2022/12/11 02:25:30;;;;;;;59.80;20.38;;;;;;;1.34;100.00;101064.72;4998563;28;20100;-85
2022/12/11 02:28:30;;;;;;;76.28;21.48;;;;;;;1.21;100.00;101055.38;5009179;28;20022;-85
2022/12/11 02:31:18;;;;;;;65.78;21.70;;;;;;;1.11;100.00;101052.84;4974025;28;20037;-85
2022/12/11 02:33:57;;;;;;;68.20;22.65;;;;;;;1.27;100.00;101050.56;5006166;28;20037;-84
2022/12/11 02:36:25;;;;;;;69.20;21.05;;;;;;;1.28;100.00;101043.09;5008486;28;20041;-84
2022/12/11 02:38:54;;;;;;;62.45;21.92;;;;;;;1.36;100.00;101059.72;5006629;28;20025;-85
2022/12/11 02:41:22;;;;;;;65.63;21.25;;;;;;;1.38;100.00;101062.97;5023224;28;20030;-84
2022/12/11 02:43:49;;;;;;;57.17;20.92;;;;;;;1.35;100.00;101058.09;5022803;28;20084;-84
2022/12/11 02:46:18;;;;;;;60.63;19.20;;;;;;;1.31;100.00;101059.84;5024841;28;20116;-84
2022/12/11 02:48:46;;;;;;;59.67;20.90;;;;;;;1.30;100.00;101063.72;5006956;28;20072;-84
2022/12/11 02:51:15;;;;;;;65.78;22.40;;;;;;;1.40;100.00;101069.00;5017442;28;20030;-85
2022/12/11 02:53:43;;;;;;;59.95;20.60;;;;;;;1.39;100.00;101066.53;4998645;28;20026;-85
2022/12/11 02:56:12;;;;;;;70.25;22.60;;;;;;;1.42;100.00;101058.47;5001041;28;20034;-85
2022/12/11 02:58:45;;;;;;;58.00;22.67;;;;;;;1.33;100.00;101060.34;5017972;28;20029;-84
2022/12/11 03:01:11;;;;;;;60.53;21.55;;;;;;;1.39;100.00;101058.28;5003365;28;20117;-84
2022/12/11 03:03:36;;;;;;;65.15;21.67;;;;;;;1.44;100.00;101054.59;4998971;28;20120;-85
2022/12/11 03:06:02;;;;;;;63.88;20.98;;;;;;;1.35;100.00;101041.53;5004760;28;20038;-85
2022/12/11 03:08:28;;;;;;;64.90;22.45;;;;;;;1.23;100.00;101038.53;5016033;28;20537;-84
2022/12/11 03:10:54;;;;;;;71.15;19.90;;;;;;;1.39;100.00;101030.69;5003587;28;20036;-84
2022/12/11 03:13:21;;;;;;;67.38;20.83;;;;;;;1.39;100.00;101038.97;5004251;28;20025;-85
2022/12/11 03:16:23;;;;;;;62.83;20.05;;;;;;;1.47;100.00;101040.16;5000458;28;20029;-84
2022/12/11 03:19:09;;;;;;;70.20;22.65;;;;;;;1.47;100.00;101034.66;5000014;28;20110;-84
2022/12/11 03:21:53;;;;;;;59.67;19.80;;;;;;;1.26;100.00;101042.59;5015896;28;20033;-84
2022/12/11 03:24:40;;;;;;;57.72;19.50;;;;;;;1.40;100.00;101046.94;4998981;28;20083;-84
2022/12/11 03:27:24;;;;;;;64.65;20.23;;;;;;;1.47;100.00;101032.69;5001928;28;20560;-84
2022/12/11 03:29:58;;;;;;;54.03;18.23;;;;;;;1.44;100.00;101029.78;5015274;28;20124;-84
2022/12/11 03:32:29;;;;;;;62.08;22.10;;;;;;;1.40;100.00;101019.34;4999747;28;20507;-84
2022/12/11 03:35:02;;;;;;;60.13;20.85;;;;;;;1.41;100.00;101014.63;4998808;28;20444;-85
2022/12/11 03:37:31;;;;;;;60.80;20.42;;;;;;;1.44;100.00;101016.78;5002131;28;20033;-85
2022/12/11 03:40:02;;;;;;;60.67;20.60;;;;;;;1.52;100.00;101020.72;5005324;28;20026;-84
2022/12/11 03:42:28;;;;;;;60.30;20.60;;;;;;;1.50;100.00;101014.72;5005175;28;20474;-85
2022/12/11 03:44:56;;;;;;;63.05;21.13;;;;;;;1.42;100.00;100997.78;5021472;28;20087;-85
2022/12/11 03:47:24;;;;;;;57.42;21.33;;;;;;;1.47;100.00;101027.19;5022015;28;20040;-85
2022/12/11 03:49:51;;;;;;;63.30;20.08;;;;;;;1.46;100.00;101014.53;5011271;28;20095;-84
2022/12/11 03:52:17;;;;;;;62.42;19.27;;;;;;;1.49;100.00;101024.13;5005875;28;20026;-84
2022/12/11 03:54:47;;;;;;;58.22;20.75;;;;;;;1.48;100.00;101028.03;5002392;28;20033;-86
2022/12/11 03:57:15;;;;;;;68.80;20.83;;;;;;;1.37;100.00;101016.38;5000808;28;20551;-85
2022/12/11 03:59:41;;;;;;;73.78;22.15;;;;;;;1.33;100.00;101020.91;5003846;28;20030;-85
2022/12/11 04:02:09;;;;;;;61.75;19.67;;;;;;;1.36;100.00;101026.63;5002143;28;23586;-86
2022/12/11 04:04:39;;;;;;;58.35;20.65;;;;;;;1.50;100.00;101028.53;5003975;28;20036;-86
2022/12/11 04:07:05;;;;;;;67.35;20.58;;;;;;;1.52;100.00;101027.06;5004730;28;20140;-85
2022/12/11 04:09:31;;;;;;;59.88;20.85;;;;;;;1.45;100.00;101034.16;5005117;28;20037;-85
2022/12/11 04:11:56;;;;;;;65.05;21.92;;;;;;;1.37;100.00;101028.25;5002277;28;20120;-85
2022/12/11 04:17:05;;;;;;;60.42;19.88;;;;;;;1.46;100.00;101019.25;5006713;28;20041;-85
2022/12/11 04:24:51;;;;;;;76.30;23.13;;;;;;;1.37;100.00;101033.78;5003476;28;20033;-85
2022/12/11 04:27:47;;;;;;;61.40;20.95;;;;;;;1.18;100.00;101030.34;5019026;28;20124;-85
2022/12/11 04:30:07;;;;;;;58.95;20.35;;;;;;;1.41;100.00;101025.69;5004092;28;20521;-85
2022/12/11 04:32:32;;;;;;;71.00;21.15;;;;;;;1.39;100.00;101016.91;5003870;28;20538;-85
2022/12/11 04:34:58;;;;;;;65.18;20.25;;;;;;;1.52;100.00;101029.00;5007306;28;20029;-85
2022/12/11 04:37:23;;;;;;;65.25;19.50;;;;;;;1.38;100.00;101018.84;5004275;28;20040;-85
2022/12/11 04:39:49;;;;;;;60.15;20.60;;;;;;;1.41;100.00;101001.69;5020839;28;20022;-85
2022/12/11 04:42:14;;;;;;;65.00;20.17;;;;;;;1.51;100.00;101017.16;5005971;28;20301;-85
2022/12/11 04:44:39;;;;;;;59.95;18.98;;;;;;;1.42;100.00;100984.00;5002099;28;20397;-85
2022/12/11 04:47:05;;;;;;;70.22;21.17;;;;;;;1.52;100.00;101007.75;4999169;28;20045;-85
2022/12/11 04:49:30;;;;;;;60.58;21.55;;;;;;;1.57;100.00;101004.06;5004734;28;20026;-85
2022/12/11 04:51:56;;;;;;;64.93;22.20;;;;;;;1.56;100.00;101002.41;5003902;28;20030;-85
2022/12/11 04:54:21;;;;;;;54.72;20.77;;;;;;;1.44;100.00;100971.84;5018353;28;20026;-85
2022/12/11 04:56:46;;;;;;;64.88;20.30;;;;;;;1.52;100.00;100991.22;5001615;28;20051;-85
2022/12/11 04:59:12;;;;;;;66.93;20.40;;;;;;;1.48;100.00;100989.41;5019086;28;20029;-85
2022/12/11 05:01:37;;;;;;;57.05;19.50;;;;;;;1.48;100.00;100983.88;4996418;28;20050;-86
2022/12/11 05:04:02;;;;;;;67.22;21.80;;;;;;;1.56;100.00;100991.38;5001258;28;20030;-85
2022/12/11 05:06:28;;;;;;;53.25;20.40;;;;;;;1.61;100.00;100994.84;5001933;28;20968;-86
2022/12/11 05:08:53;;;;;;;60.83;21.35;;;;;;;1.59;100.00;100986.06;5008160;28;20109;-85
2022/12/11 05:11:19;;;;;;;62.00;21.05;;;;;;;1.36;100.00;100981.69;5021854;28;20109;-85
2022/12/11 05:13:44;;;;;;;49.03;18.77;;;;;;;1.62;100.00;100996.47;5007703;28;20370;-85
2022/12/11 05:16:13;;;;;;;55.97;21.02;;;;;;;1.55;100.00;100989.75;5027919;28;20477;-85
2022/12/11 05:18:39;;;;;;;61.75;20.27;;;;;;;1.63;100.00;101000.06;5004544;28;20100;-85
2022/12/11 05:21:07;;;;;;;58.78;19.58;;;;;;;1.62;100.00;101001.16;5020579;28;20440;-85
2022/12/11 05:23:33;;;;;;;57.47;21.63;;;;;;;1.57;100.00;100987.50;5024686;28;20021;-86
2022/12/11 05:26:05;;;;;;;68.22;23.48;;;;;;;1.38;100.00;100990.47;5027878;28;20029;-86
2022/12/11 05:28:33;;;;;;;60.00;21.97;;;;;;;1.50;100.00;100985.19;5018893;28;20026;-85
2022/12/11 05:31:02;;;;;;;72.65;20.15;;;;;;;1.49;100.00;100988.25;5003481;28;20014;-86
2022/12/11 05:33:29;;;;;;;63.88;22.27;;;;;;;1.42;100.00;100989.50;5021026;28;20034;-86
2022/12/11 05:35:54;;;;;;;67.47;21.02;;;;;;;1.39;100.00;100987.41;5000436;28;20060;-85
2022/12/11 05:38:20;;;;;;;65.53;19.52;;;;;;;1.54;100.00;100988.13;5015337;28;20110;-85
2022/12/11 05:40:57;;;;;;;58.95;20.55;;;;;;;1.56;100.00;100985.88;5021352;28;20021;-86
2022/12/11 05:43:23;;;;;;;71.88;22.85;;;;;;;1.38;100.00;100982.19;5001193;28;20366;-86
2022/12/11 05:45:49;;;;;;;62.10;20.88;;;;;;;1.44;100.00;100982.88;4999955;28;20040;-86
2022/12/11 05:48:14;;;;;;;55.85;19.50;;;;;;;1.58;100.00;100989.13;4999019;28;20448;-86
2022/12/11 05:50:39;;;;;;;64.30;20.75;;;;;;;1.38;100.00;100976.66;4999051;28;20117;-86
2022/12/11 05:53:05;;;;;;;67.05;20.27;;;;;;;1.48;100.00;100983.88;5003024;28;20465;-86
2022/12/11 05:55:33;;;;;;;73.85;21.90;;;;;;;1.52;100.00;100988.47;5014390;28;20040;-86
2022/12/11 05:57:59;;;;;;;61.25;20.27;;;;;;;1.58;100.00;100989.13;4995418;28;20026;-86
2022/12/11 06:00:24;;;;;;;65.03;21.20;;;;;;;1.38;100.00;100984.94;5001707;28;20374;-86
2022/12/11 06:02:50;;;;;;;71.95;22.23;;;;;;;1.46;100.00;100981.44;4988561;28;20099;-87
2022/12/11 06:05:15;;;;;;;69.38;21.42;;;;;;;1.41;100.00;100996.16;5021268;28;20068;-86
2022/12/11 06:07:40;;;;;;;68.55;22.08;;;;;;;1.28;100.00;100980.47;5004114;28;20037;-86
2022/12/11 06:10:06;;;;;;;72.03;20.90;;;;;;;1.55;100.00;100989.75;5022726;28;20048;-86
2022/12/11 06:12:32;;;;;;;62.47;22.95;;;;;;;1.38;100.00;100974.72;5005819;28;20034;-86
2022/12/11 06:14:57;;;;;;;71.72;22.02;;;;;;;1.54;100.00;100988.97;5004032;28;20176;-86
2022/12/11 06:17:22;;;;;;;62.42;22.35;;;;;;;1.58;100.00;100983.59;5002283;28;22899;-86
2022/12/11 06:19:48;;;;;;;57.90;20.95;;;;;;;1.58;100.00;100989.13;4999441;28;20113;-86
2022/12/11 06:22:13;;;;;;;61.50;19.13;;;;;;;1.55;100.00;100989.75;5012796;28;20044;-86
2022/12/11 06:24:38;;;;;;;57.22;21.05;;;;;;;1.61;100.00;100983.81;5017749;28;20037;-86
2022/12/11 06:27:04;;;;;;;57.78;21.17;;;;;;;1.40;100.00;100983.50;5016550;28;20121;-86
2022/12/11 06:29:29;;;;;;;59.17;19.65;;;;;;;1.55;100.00;100984.25;5001864;28;20123;-86
2022/12/11 06:31:54;;;;;;;59.55;21.30;;;;;;;1.51;100.00;100973.03;4999544;28;20029;-86
2022/12/11 06:34:20;;;;;;;53.50;18.85;;;;;;;1.53;100.00;100975.47;5001687;28;20500;-86
2022/12/11 06:36:45;;;;;;;60.85;21.40;;;;;;;1.42;100.00;100974.91;4999623;28;20038;-86
2022/12/11 06:39:11;;;;;;;66.80;20.33;;;;;;;1.51;100.00;100983.25;5008383;28;20037;-86
2022/12/11 06:41:36;;;;;;;60.78;21.50;;;;;;;1.36;100.00;100979.72;5005789;28;20128;-85
2022/12/11 06:44:02;;;;;;;56.20;19.60;;;;;;;1.44;100.00;100977.38;5000160;28;20090;-85
2022/12/11 06:46:28;;;;;;;56.42;19.35;;;;;;;1.42;100.00;100991.47;5015562;28;20029;-86
2022/12/11 06:48:53;;;;;;;64.00;22.77;;;;;;;1.52;100.00;100987.63;4997257;28;20056;-86
2022/12/11 06:51:21;;;;;;;77.13;22.45;;;;;;;1.42;100.00;100981.25;4999477;28;20972;-85
2022/12/11 06:53:55;;;;;;;54.88;21.20;;;;;;;1.43;100.00;100984.81;4997859;28;20113;-86
2022/12/11 06:56:22;;;;;;;65.40;19.73;;;;;;;1.50;100.00;100987.16;5011751;28;20493;-85
2022/12/11 06:58:47;;;;;;;69.35;20.95;;;;;;;1.30;100.00;100980.16;4996095;28;20034;-85
2022/12/11 07:01:14;;;;;;;57.88;20.85;;;;;;;1.41;100.00;100982.38;4999922;28;20062;-86
2022/12/11 07:03:40;;;;;;;60.33;20.08;;;;;;;1.51;100.00;100986.00;4998392;28;20488;-85
2022/12/11 07:06:05;;;;;;;63.10;20.75;;;;;;;1.48;100.00;100989.41;4994611;28;20127;-86
2022/12/11 07:08:31;;;;;;;59.28;22.45;;;;;;;1.47;100.00;100990.50;5002853;28;20036;-86
2022/12/11 07:11:05;;;;;;;69.28;23.00;;;;;;;1.49;100.00;100996.53;5003111;28;20080;-86
2022/12/11 07:13:30;;;;;;;62.70;19.75;;;;;;;1.54;100.00;100993.63;5001344;28;20061;-86
2022/12/11 07:15:58;;;;;;;72.93;22.55;;;;;;;1.64;100.00;101001.66;5001019;28;20029;-86
2022/12/11 07:18:23;;;;;;;64.65;21.20;;;;;;;1.63;100.00;100998.09;4999512;28;20043;-86
2022/12/11 07:20:48;;;;;;;60.67;20.55;;;;;;;1.63;100.00;101009.13;5000870;28;20030;-86
2022/12/11 07:23:14;;;;;;;54.28;19.05;;;;;;;1.55;100.00;101007.13;5002032;28;20104;-85
2022/12/11 07:25:39;;;;;;;61.33;20.15;;;;;;;1.58;100.00;101011.19;5020750;28;20115;-86
2022/12/11 07:28:04;;;;;;;59.25;20.60;;;;;;;1.57;100.00;101009.59;4999908;28;20061;-86
2022/12/11 07:30:30;;;;;;;66.80;23.20;;;;;;;1.41;100.00;101007.22;5001888;28;20093;-86
2022/12/11 07:32:55;;;;;;;54.97;19.92;;;;;;;1.53;100.00;101019.63;4997877;28;20069;-85
2022/12/11 07:35:21;;;;;;;55.42;21.23;;;;;;;1.61;100.00;101005.06;5008619;28;20469;-86
2022/12/11 07:37:46;;;;;;;65.45;22.35;;;;;;;1.52;100.00;101015.19;4995774;28;20030;-85
2022/12/11 07:40:12;;;;;;;67.00;20.70;;;;;;;1.41;100.00;101009.97;5003842;28;20029;-85
2022/12/11 07:42:38;;;;;;;70.00;21.02;;;;;;;1.54;100.00;101011.03;5017253;28;20259;-86
2022/12/11 07:45:03;;;;;;;65.68;20.50;;;;;;;1.61;100.00;101008.63;4999468;28;20033;-86
2022/12/11 07:47:29;;;;;;;63.78;18.55;;;;;;;1.61;100.00;101010.59;4996455;28;20034;-85
2022/12/11 07:49:54;;;;;;;56.22;20.77;;;;;;;1.40;100.00;100989.00;4995918;28;20041;-85
2022/12/11 07:52:19;;;;;;;63.67;22.20;;;;;;;1.39;100.00;101014.13;4994110;28;20025;-86
2022/12/11 07:54:45;;;;;;;59.65;20.50;;;;;;;1.50;100.00;101026.56;4996475;28;21212;-86
2022/12/11 07:57:10;;;;;;;70.57;24.40;;;;;;;1.42;100.00;101019.03;4999567;28;20038;-86
2022/12/11 07:59:35;;;;;;;56.38;19.35;;;;;;;1.47;100.00;101026.38;4998676;28;20128;-86
2022/12/11 08:02:01;;;;;;;68.60;21.13;;;;;;;1.60;100.00;101017.22;4997783;28;20117;-86
2022/12/11 08:04:26;;;;;;;58.30;19.95;;;;;;;1.61;100.00;101027.13;4996805;28;20029;-86
2022/12/11 08:06:51;;;;;;;62.60;19.08;;;;;;;1.50;100.00;101017.50;4995596;28;20485;-86
2022/12/11 08:09:21;;;;;;;67.10;22.05;;;;;;;1.20;100.00;101008.78;4999259;28;20447;-86
2022/12/11 08:11:50;;;;;;;67.25;22.42;;;;;;;1.53;100.00;101019.63;5002087;28;20030;-86
2022/12/11 08:14:16;;;;;;;63.03;20.70;;;;;;;1.63;100.00;101022.13;5004662;28;20056;-85
2022/12/11 08:16:42;;;;;;;56.28;20.58;;;;;;;1.52;100.00;100995.91;4997790;28;20496;-85
2022/12/11 08:19:09;;;;;;;59.70;20.55;;;;;;;1.56;100.00;101028.09;5003461;28;20099;-86
2022/12/11 08:21:35;;;;;;;69.55;22.17;;;;;;;1.60;100.00;101009.78;5008893;28;20037;-85
2022/12/11 08:24:00;;;;;;;61.03;21.08;;;;;;;1.55;100.00;101018.16;4997248;28;20386;-86
2022/12/11 08:26:28;;;;;;;64.32;20.45;;;;;;;1.68;100.00;101010.94;5017442;28;20389;-86
2022/12/11 08:28:54;;;;;;;59.20;19.88;;;;;;;1.67;100.00;100998.28;4997176;28;20151;-86
2022/12/11 08:31:20;;;;;;;56.00;21.23;;;;;;;1.73;100.00;101008.06;5017958;28;20077;-86
2022/12/11 08:33:47;;;;;;;65.70;22.33;;;;;;;1.44;100.00;100988.41;5000661;28;20105;-86
2022/12/11 08:36:15;;;;;;;56.20;20.83;;;;;;;1.53;100.00;101011.34;5002800;28;20337;-86
2022/12/11 08:38:41;;;;;;;60.95;20.92;;;;;;;1.67;100.00;101008.53;4996379;28;20080;-85
2022/12/11 08:41:19;;;;;;;62.15;20.73;;;;;;;1.49;100.00;100999.28;4999488;28;20421;-86
2022/12/11 08:43:44;;;;;;;65.60;21.40;;;;;;;1.68;100.00;101008.19;5015442;28;20036;-85
2022/12/11 08:46:11;;;;;;;62.92;21.05;;;;;;;1.74;100.00;101015.22;4999567;28;20026;-85
2022/12/11 08:48:39;;;;;;;55.70;18.10;;;;;;;1.76;100.00;101012.94;5000286;28;20026;-85
2022/12/11 08:51:09;;;;;;;67.03;21.85;;;;;;;1.80;100.00;101016.72;4999304;28;20034;-85
2022/12/11 08:53:34;;;;;;;60.85;21.33;;;;;;;1.65;100.00;101003.31;5001236;28;20037;-85
2022/12/11 08:56:05;;;;;;;70.35;23.35;;;;;;;1.76;100.00;101024.00;4998704;28;20034;-86
2022/12/11 08:58:31;;;;;;;60.33;23.60;;;;;;;1.66;100.00;101007.69;5001098;28;20053;-85
2022/12/11 09:00:56;;;;;;;70.95;21.63;;;;;;;1.69;100.00;101015.34;5017011;28;20042;-85
2022/12/11 09:03:22;;;;;;;59.50;20.23;;;;;;;1.81;100.00;101015.59;4997619;28;20042;-85
2022/12/11 09:05:48;;;;;;;71.82;21.85;;;;;;;1.80;100.00;101008.44;4997788;28;20040;-85
2022/12/11 09:08:13;;;;;;;51.13;18.30;;;;;;;1.83;100.00;101009.75;4996370;28;20033;-85
2022/12/11 09:10:39;;;;;;;64.82;21.63;;;;;;;1.78;100.00;101009.88;5015267;28;20026;-85
2022/12/11 09:13:04;;;;;;;67.35;22.15;;;;;;;1.77;100.00;101009.06;4998319;28;20029;-85
2022/12/11 09:15:29;;;;;;;67.90;22.13;;;;;;;1.82;100.00;101011.69;5005993;28;20484;-85
2022/12/11 09:17:55;;;;;;;55.05;22.00;;;;;;;1.68;100.00;101005.44;5001269;28;20029;-85
2022/12/11 09:20:20;;;;;;;55.58;20.70;;;;;;;1.70;100.00;100985.81;4999336;28;20029;-85
2022/12/11 09:22:45;;;;;;;60.22;20.63;;;;;;;1.82;100.00;101000.66;5003994;28;20037;-85
2022/12/11 09:25:11;;;;;;;67.57;23.63;;;;;;;1.85;100.00;101001.16;4997763;28;21607;-85
2022/12/11 09:27:36;;;;;;;79.22;24.73;;;;;;;2.65;100.00;100994.47;4998231;28;20408;-85
2022/12/11 09:30:02;;;;;;;60.58;21.98;;;;;;;2.20;100.00;100999.38;4999020;28;20033;-85
2022/12/11 09:32:27;;;;;;;60.80;21.80;;;;;;;2.05;100.00;100992.34;5003744;28;20723;-85
2022/12/11 09:34:53;;;;;;;64.55;22.23;;;;;;;2.00;100.00;101006.25;5006377;28;20052;-85
2022/12/11 09:37:18;;;;;;;58.35;21.95;;;;;;;1.88;100.00;100995.81;5019318;28;20065;-85
2022/12/11 09:39:43;;;;;;;56.38;20.10;;;;;;;1.89;100.00;101005.72;5004887;28;20124;-84
2022/12/11 09:42:19;;;;;;;68.95;23.23;;;;;;;1.86;100.00;101002.78;5005271;28;20470;-85
2022/12/11 09:44:53;;;;;;;66.53;22.92;;;;;;;1.87;100.00;100996.13;5001942;28;20088;-85
2022/12/11 09:47:33;;;;;;;68.40;22.55;;;;;;;1.89;100.00;101000.19;5004157;28;20040;-86
2022/12/11 09:50:11;;;;;;;58.92;22.17;;;;;;;1.86;100.00;100994.50;5004959;28;20029;-85
2022/12/11 09:53:00;;;;;;;59.03;21.27;;;;;;;1.76;100.00;100993.63;5002146;28;20505;-84
2022/12/11 09:55:38;;;;;;;50.05;19.05;;;;;;;1.90;100.00;101009.28;5020158;28;20743;-84
2022/12/11 09:58:15;;;;;;;56.63;21.88;;;;;;;1.80;100.00;100997.38;5003839;28;20021;-85
2022/12/11 10:00:46;;;;;;;61.55;21.20;;;;;;;1.76;100.00;100995.59;4997132;28;20030;-85
2022/12/11 10:03:36;;;;;;;52.05;20.60;;;;;;;1.89;100.00;101000.19;5003256;28;20443;-85
2022/12/11 10:06:20;;;;;;;62.28;22.88;;;;;;;1.81;100.00;100998.19;5018255;28;20029;-85
2022/12/11 10:08:51;;;;;;;57.50;23.23;;;;;;;1.82;100.00;100994.31;5025504;28;20121;-85
2022/12/11 10:11:35;;;;;;;57.83;22.98;;;;;;;1.65;100.00;101005.25;5004820;28;20038;-84
2022/12/11 10:14:17;;;;;;;64.57;22.40;;;;;;;1.63;100.00;100998.09;5010615;22;20064;-84
2022/12/11 10:16:47;;;;;;;67.07;25.30;;;;;;;1.79;100.00;101008.75;4987507;28;20133;-85
2022/12/11 10:19:26;;;;;;;63.53;21.38;;;;;;;1.71;100.00;101010.34;4992008;28;20038;-85
2022/12/11 10:21:52;;;;;;;62.70;25.02;;;;;;;1.73;100.00;101007.22;4967555;28;20046;-85
2022/12/11 10:24:32;;;;;;;62.45;22.27;;;;;;;1.77;100.00;101009.06;4987577;28;20080;-85
2022/12/11 10:27:00;;;;;;;61.83;22.35;;;;;;;1.83;100.00;101012.50;4997323;28;20156;-85
2022/12/11 10:29:25;;;;;;;59.33;23.23;;;;;;;1.88;100.00;101014.31;4993586;28;20022;-85
2022/12/11 10:31:57;;;;;;;64.40;24.50;;;;;;;1.49;100.00;101005.63;4980120;28;20077;-85
2022/12/11 10:34:35;;;;;;;62.85;23.88;;;;;;;1.38;100.00;101016.09;4986943;28;20042;-85
2022/12/11 10:37:01;;;;;;;56.60;21.83;;;;;;;1.73;100.00;101001.72;4998912;28;20034;-84
2022/12/11 10:39:27;;;;;;;58.40;21.95;;;;;;;1.40;100.00;101008.31;4992126;28;20473;-85
2022/12/11 10:41:54;;;;;;;57.88;21.25;;;;;;;1.71;100.00;101007.56;4973396;28;20112;-85
2022/12/11 10:44:28;;;;;;;69.10;22.58;;;;;;;1.61;100.00;101005.06;4976889;28;20026;-84
2022/12/11 10:47:16;;;;;;;55.17;23.05;;;;;;;1.69;100.00;101006.25;4965596;28;20515;-84
2022/12/11 10:49:55;;;;;;;52.92;21.17;;;;;;;1.69;100.00;100992.47;4975153;28;20027;-88
2022/12/11 10:52:32;;;;;;;58.40;22.75;;;;;;;1.88;100.00;100997.75;4983450;28;20065;-87
2022/12/11 10:55:03;;;;;;;54.33;21.50;;;;;;;1.83;100.00;100985.72;4989423;28;20030;-86
2022/12/11 10:57:33;;;;;;;52.13;20.65;;;;;;;1.75;100.00;100992.00;4989509;28;20077;-86
2022/12/11 10:59:59;;;;;;;56.17;23.70;;;;;;;1.87;100.00;100987.84;4964786;28;20105;-87
2022/12/11 11:02:40;;;;;;;63.33;22.60;;;;;;;1.90;100.00;100979.75;4986092;28;20041;-87
2022/12/11 11:05:13;;;;;;;66.97;23.38;;;;;;;1.71;100.00;100993.78;4988626;28;20038;-86
2022/12/11 11:07:38;;;;;;;63.78;22.98;;;;;;;1.64;100.00;100993.38;4981418;28;20042;-86
2022/12/11 11:10:10;;;;;;;59.75;23.60;;;;;;;1.77;100.00;100997.19;4967503;28;20409;-85
2022/12/11 11:12:42;;;;;;;60.38;24.10;;;;;;;1.65;100.00;100989.50;4976307;28;20034;-87
2022/12/11 11:15:12;;;;;;;56.60;23.65;;;;;;;1.65;100.00;100994.22;4974762;28;20173;-86
2022/12/11 11:17:53;;;;;;;64.07;25.75;;;;;;;1.33;100.00;100983.13;4962616;28;20038;-87
2022/12/11 11:20:21;;;;;;;54.58;22.80;;;;;;;1.58;100.00;100994.63;4960484;28;20433;-87
2022/12/11 11:22:51;;;;;;;56.88;23.33;;;;;;;1.51;100.00;100983.25;4980253;28;20033;-88